Aérodrome :
LOGIN :

S'inscrire | Disclaimer

   EN    FR    IT 

 










Légende :    VFR   VFR Marginal   IFR   IFR Intensif   IFR Très Intensif
Visi : 
Plafond : 
>= 8 km
>= 3000ft
5 à 8 km
1000 à 3000 ft
1500m à 5 km
500 à 1000 ft
800 à 1500m
200 à 500 ft
< 800m
< 200 ft
Symboles :   Orages  Brouillard  Fortes neiges  Fortes précipitations  Vent > 20 kt
SIGMETs :   Divers  Orages  Givrage  Turbulence  Onde Orograph.  Cendres Volcan.







- Altitude de l'aérodrome : 995 ft
- Code IATA : KTW


EPKT - Katowice

DERNIER METAR :
  • 140630Z 01006KT CAVOK 22/14 Q1010

METARs EXPIRÉS :
  • 140600Z 01003KT 330V090 CAVOK 21/15 Q1010
  • 140530Z VRB01KT CAVOK 19/15 Q1010
  • 140500Z VRB02KT CAVOK 18/15 Q1010
  • 140430Z VRB02KT CAVOK 16/14 Q1010
  • 140400Z VRB02KT CAVOK 17/14 Q1010

TAF TAF EPKT
Valide du 14 à 06h jusqu'au 15 à 06h UTC


140530Z 1406/1506 VRB02KT CAVOK
BECMG 1406/1408 31011KT
TEMPO 1407/1413 30015G28KT SHRA BKN030CB
TEMPO 1417/1503 4000 SHRA BKN030CB
Pas de NOTAMs connus pour ce terrain.
1 SIGMET publié pour la FIR Warszawa (EPWW) :
 
Orages noyés dans la masse
EPWW SIGMET 1 VALID 140405/140805 EPWA
EPWW WARSAW FIR EMBD TS OBS WI N5410 E02120 - N5240 E02000 - N5320 E01650 - N5540 E01730 - N5410 E02120 TOP FL320 MOV NE NC=



MET'MAP, la Météo Aéronautique d'un coup d'oeil ! - Copyright ORBIFLY Décembre 2007 - Disclaimer

ORBIFLY MET'MAP TEAM :

Programmation & Développement : Alexandra Zaïnal
Conception & Développement : Baudouin d'Aumeries
Co-Programmation & Développement : Marc-Olivier Méhu
Soutien technique & logistique : Manuel Goepfert

Contact : metmap@orbifly.com




SOURCES & CREDITS :

   NOAA